Briefing drone pour Aurillac (LFLW)

Rechercher une autre localisation

Conditions de vol :


Nous sommes le : Mercredi 14 avril 2021
Il est 00:51 UTC (02:51 LT)

Lever de soleil : 04:40 UTC (06:40 LT)
Coucher de soleil : 19:00 UTC (21:00 LT)

Météo

L'essentiel des conditions de vol

VIGILANCE MÉTÉO FRANCE - Cantal (15)
Pas de vigilances particulieres
CARTE TEMSI
CARTES DES FRONTS
METAR de LFLW
LFLW 140030Z AUTO 08004KT CAVOK 02/M05 Q1022

Date d'émission: 14/04/2021
Heure d'émission: 00:30 UTC
Vent: 080° pour 4 KT (7 km/h)
Visibilité horizontale: > 10 km
Plafond : Plafond et visibilité OK (CAVOK)
Température: 2 °C
Point de rosée: -5 °C
Humidité: 60%
Pression (QNH): 1022 hPa
Prévision 24h pour Aurillac
Vent : 56° pour 3 KT (11 km/h)
Temperature Maxi: 1 °C
Temperature Min: 1 °C
Humidité : 61%
Condition : Ciel dégagé



Warning: count(): Parameter must be an array or an object that implements Countable in /homepages/6/d509196549/htdocs/droneoxygene/briefing.php on line 743
WEBCAM POUR AURILLAC

Réglementation

Voler en sécurité

CARTES AERONAUTIQUE 1/500.000
CARTES VAC (LFLW)
SUP AIP




Chargement des AIP...
NOTAM (AURILLAC + Terrain à proximité / FIR )




Chargement des NOTAMS...
CONTACT PREFECTURE 15


Avertissement : Les données mises à disposition sont indicatives. Oxygène Drone ne pourra être tenu responsable de dégâts causés aux biens et aux personnes.